Time;durP1;ratioP1;P1;durP2;ratioP2;P2;SDS_P1;SDS_P2;PMS_P1;PMS_P2;Temp;Humidity;BMP_temperature;BMP_pressure;BME280_temperature;BME280_humidity;BME280_pressure;Samples;Min_cycle;Max_cycle;Signal;HPM_P1;HPM_P2
2023/03/05 00:01:36;;;;;;;0.10;0.10;;;5.10;99.90;;;;;;5027494;28;20572;-62
2023/03/05 00:04:04;;;;;;;0.10;0.10;;;5.10;99.90;;;;;;5027621;28;20049;-62
2023/03/05 00:06:30;;;;;;;0.10;0.10;;;5.00;99.90;;;;;;5028215;28;20088;-62
2023/03/05 00:08:57;;;;;;;0.00;0.00;;;5.00;99.90;;;;;;5025872;28;20572;-62
2023/03/05 00:11:26;;;;;;;0.00;0.00;;;5.10;99.90;;;;;;5008716;28;20052;-62
2023/03/05 00:13:52;;;;;;;0.10;0.10;;;5.00;99.90;;;;;;5026908;28;20053;-61
2023/03/05 00:16:19;;;;;;;0.30;0.30;;;5.00;99.90;;;;;;5027304;28;20350;-62
2023/03/05 00:18:45;;;;;;;0.10;0.10;;;5.00;99.90;;;;;;5025032;28;20034;-62
2023/03/05 00:21:34;;;;;;;0.00;0.00;;;5.00;99.90;;;;;;5022926;28;20037;-62
2023/03/05 00:24:02;;;;;;;0.10;0.10;;;5.10;99.90;;;;;;5026911;28;20132;-61
2023/03/05 00:26:29;;;;;;;0.10;0.10;;;5.00;99.90;;;;;;5025353;28;20041;-62
2023/03/05 00:28:55;;;;;;;0.10;0.10;;;5.00;99.90;;;;;;5024483;28;20095;-61
2023/03/05 00:31:32;;;;;;;1.20;0.90;;;5.00;99.90;;;;;;5028010;28;20140;-62
2023/03/05 00:34:07;;;;;;;0.10;0.10;;;5.00;99.90;;;;;;5027163;28;20523;-62
2023/03/05 00:36:33;;;;;;;0.10;0.10;;;5.00;99.90;;;;;;5008518;28;20057;-62
2023/03/05 00:38:59;;;;;;;0.10;0.10;;;5.00;99.90;;;;;;5027407;28;20041;-61
2023/03/05 00:41:25;;;;;;;0.10;0.10;;;5.00;99.90;;;;;;5026871;28;20394;-62
2023/03/05 00:43:51;;;;;;;0.10;0.10;;;5.10;99.90;;;;;;5026880;28;20609;-62
2023/03/05 00:46:17;;;;;;;0.08;0.08;;;5.10;99.90;;;;;;5026228;28;20088;-62
2023/03/05 00:48:42;;;;;;;0.10;0.10;;;5.00;99.90;;;;;;5024342;28;20041;-62
2023/03/05 00:51:08;;;;;;;0.10;0.10;;;5.10;99.90;;;;;;5009996;28;20561;-62
2023/03/05 00:53:34;;;;;;;0.10;0.10;;;5.00;99.90;;;;;;5025424;28;20497;-61
2023/03/05 00:55:59;;;;;;;0.10;0.10;;;5.10;99.90;;;;;;5027542;28;20073;-62
2023/03/05 00:58:25;;;;;;;0.15;0.15;;;5.10;99.90;;;;;;5021621;28;20128;-61
2023/03/05 01:00:51;;;;;;;0.10;0.10;;;5.10;99.90;;;;;;5026718;28;20052;-62
2023/03/05 01:03:17;;;;;;;0.00;0.00;;;5.10;99.90;;;;;;5026462;28;20042;-61
2023/03/05 01:05:43;;;;;;;0.10;0.10;;;5.00;99.90;;;;;;5027332;28;20088;-61
2023/03/05 01:08:09;;;;;;;0.10;0.10;;;5.00;99.90;;;;;;5026850;28;20037;-61
2023/03/05 01:10:35;;;;;;;0.20;0.20;;;5.00;99.90;;;;;;5026344;28;20049;-61
2023/03/05 01:13:00;;;;;;;0.20;0.20;;;4.90;99.90;;;;;;5026315;28;20053;-62
2023/03/05 01:15:26;;;;;;;0.10;0.10;;;5.00;99.90;;;;;;5026849;28;20037;-62
2023/03/05 01:17:52;;;;;;;0.10;0.10;;;4.90;99.90;;;;;;5025965;28;20120;-62
2023/03/05 01:20:19;;;;;;;0.10;0.10;;;4.90;99.90;;;;;;5028191;28;20033;-62
2023/03/05 01:22:44;;;;;;;0.20;0.20;;;4.90;99.90;;;;;;5029751;28;20037;-61
2023/03/05 01:25:12;;;;;;;0.10;0.10;;;4.90;99.90;;;;;;5030304;28;20041;-62
2023/03/05 01:27:38;;;;;;;0.10;0.10;;;4.90;99.90;;;;;;5026209;28;20560;-61
2023/03/05 01:30:06;;;;;;;0.10;0.10;;;4.90;99.90;;;;;;5011542;28;20132;-62
2023/03/05 01:32:33;;;;;;;0.10;0.10;;;5.00;99.90;;;;;;5029570;28;20055;-62
2023/03/05 01:35:01;;;;;;;0.10;0.10;;;5.00;99.90;;;;;;5029919;28;20124;-62
2023/03/05 01:37:27;;;;;;;0.10;0.10;;;5.00;99.90;;;;;;5030780;28;20080;-62
2023/03/05 01:39:53;;;;;;;0.10;0.10;;;4.90;99.90;;;;;;5031256;28;20064;-62
2023/03/05 01:42:20;;;;;;;0.10;0.10;;;4.90;99.90;;;;;;5030271;28;20045;-63
2023/03/05 01:45:06;;;;;;;0.10;0.10;;;4.70;99.90;;;;;;5031167;28;20107;-61
2023/03/05 01:47:31;;;;;;;0.10;0.10;;;4.80;99.90;;;;;;5029922;28;20053;-62
2023/03/05 01:49:58;;;;;;;0.10;0.10;;;4.70;99.90;;;;;;5030294;28;20041;-62
2023/03/05 01:52:26;;;;;;;5.05;2.42;;;4.80;99.90;;;;;;5029539;28;20114;-62
2023/03/05 01:55:01;;;;;;;0.10;0.10;;;4.80;99.90;;;;;;5011865;28;20530;-62
2023/03/05 01:57:31;;;;;;;0.10;0.10;;;4.80;99.90;;;;;;5022794;28;20053;-62
2023/03/05 02:00:06;;;;;;;0.10;0.10;;;4.80;99.90;;;;;;5029806;28;20041;-62
2023/03/05 02:02:32;;;;;;;0.15;0.15;;;4.70;99.90;;;;;;5029804;28;20573;-62
2023/03/05 02:05:05;;;;;;;0.10;0.10;;;4.80;99.90;;;;;;5029699;28;20045;-62
2023/03/05 02:07:32;;;;;;;0.10;0.10;;;4.80;99.90;;;;;;5030014;28;20123;-62
2023/03/05 02:09:58;;;;;;;0.10;0.10;;;4.70;99.90;;;;;;5029104;28;20056;-62
2023/03/05 02:12:24;;;;;;;0.10;0.10;;;4.70;99.90;;;;;;5030487;28;20432;-61
2023/03/05 02:14:57;;;;;;;0.03;0.03;;;4.70;99.90;;;;;;5030735;28;20045;-61
2023/03/05 02:17:26;;;;;;;0.10;0.10;;;4.70;99.90;;;;;;5029562;28;20045;-62
2023/03/05 02:19:55;;;;;;;0.10;0.10;;;4.60;99.90;;;;;;5029725;28;20053;-61
2023/03/05 02:22:23;;;;;;;0.10;0.10;;;4.60;99.90;;;;;;5028336;28;20046;-61
2023/03/05 02:24:49;;;;;;;0.10;0.10;;;4.60;99.90;;;;;;5029688;28;20108;-62
2023/03/05 02:27:15;;;;;;;0.10;0.10;;;4.60;99.90;;;;;;5029124;28;20045;-62
2023/03/05 02:29:44;;;;;;;0.10;0.10;;;4.50;99.90;;;;;;5029604;28;20102;-62
2023/03/05 02:32:12;;;;;;;0.10;0.10;;;4.50;99.90;;;;;;5027785;28;20053;-62
2023/03/05 02:34:37;;;;;;;0.10;0.10;;;4.50;99.90;;;;;;5029274;28;20622;-61
2023/03/05 02:37:04;;;;;;;0.10;0.10;;;4.40;99.90;;;;;;5029981;28;20037;-62
2023/03/05 02:39:32;;;;;;;0.10;0.10;;;4.40;99.90;;;;;;5027428;28;20064;-62
2023/03/05 02:41:58;;;;;;;0.10;0.10;;;4.50;99.90;;;;;;5027759;28;20214;-61
2023/03/05 02:44:23;;;;;;;0.10;0.10;;;4.50;99.90;;;;;;5012018;28;20433;-61
2023/03/05 02:46:49;;;;;;;0.10;0.10;;;4.60;99.90;;;;;;5028047;28;20033;-62
2023/03/05 02:49:15;;;;;;;0.08;0.08;;;4.50;99.90;;;;;;5030034;28;20049;-62
2023/03/05 02:51:40;;;;;;;0.10;0.10;;;4.50;99.90;;;;;;5027732;28;20045;-62
2023/03/05 02:54:06;;;;;;;0.10;0.10;;;4.60;99.90;;;;;;5026961;28;20045;-61
2023/03/05 02:56:32;;;;;;;0.10;0.10;;;4.70;99.90;;;;;;5028247;28;20813;-61
2023/03/05 02:58:57;;;;;;;0.10;0.10;;;4.70;99.90;;;;;;5028787;28;20116;-62
2023/03/05 03:01:23;;;;;;;0.10;0.10;;;4.70;99.90;;;;;;5027366;28;20049;-62
2023/03/05 03:03:49;;;;;;;0.10;0.10;;;4.70;99.90;;;;;;5028459;28;20049;-61
2023/03/05 03:06:14;;;;;;;0.10;0.10;;;4.70;99.90;;;;;;5028915;28;20045;-62
2023/03/05 03:08:40;;;;;;;0.10;0.10;;;4.70;99.90;;;;;;5030195;28;20533;-62
2023/03/05 03:11:08;;;;;;;0.10;0.10;;;4.60;99.90;;;;;;5028362;28;20049;-61
2023/03/05 03:13:34;;;;;;;0.10;0.10;;;4.70;99.90;;;;;;5028065;28;20041;-62
2023/03/05 03:16:04;;;;;;;0.10;0.10;;;4.60;99.90;;;;;;5028327;28;20041;-61
2023/03/05 03:18:29;;;;;;;0.10;0.10;;;4.60;99.90;;;;;;5027693;28;20045;-61
2023/03/05 03:20:55;;;;;;;0.10;0.10;;;4.50;99.90;;;;;;5027534;28;20034;-61
2023/03/05 03:23:21;;;;;;;0.10;0.10;;;4.60;99.90;;;;;;5027442;28;20128;-62
2023/03/05 03:25:46;;;;;;;0.10;0.10;;;4.50;99.90;;;;;;5028996;28;20033;-62
2023/03/05 03:28:12;;;;;;;0.10;0.10;;;4.60;99.90;;;;;;5027381;28;20578;-61
2023/03/05 03:30:37;;;;;;;0.10;0.10;;;4.50;99.90;;;;;;5027563;28;20033;-62
2023/03/05 03:33:03;;;;;;;0.00;0.00;;;4.50;99.90;;;;;;5029257;28;20112;-62
2023/03/05 03:35:29;;;;;;;0.10;0.10;;;4.50;99.90;;;;;;5027342;28;20120;-61
2023/03/05 03:37:54;;;;;;;0.10;0.10;;;4.50;99.90;;;;;;5029012;28;20073;-61
2023/03/05 03:40:20;;;;;;;0.10;0.10;;;4.50;99.90;;;;;;5028807;28;20061;-61
2023/03/05 03:42:46;;;;;;;0.10;0.10;;;4.40;99.90;;;;;;5027047;28;20041;-61
2023/03/05 03:45:12;;;;;;;3.10;1.75;;;4.50;99.90;;;;;;5027730;28;20034;-61
2023/03/05 03:47:38;;;;;;;0.00;0.00;;;4.40;99.90;;;;;;5028033;28;20112;-61
2023/03/05 03:50:03;;;;;;;0.10;0.10;;;4.30;99.90;;;;;;5027674;28;20129;-61
2023/03/05 03:52:29;;;;;;;0.10;0.10;;;4.40;99.90;;;;;;5008534;28;20061;-61
2023/03/05 03:55:00;;;;;;;0.10;0.10;;;4.40;99.90;;;;;;5027652;28;20500;-61
2023/03/05 03:57:29;;;;;;;0.10;0.10;;;4.50;99.90;;;;;;5009246;28;20061;-61
2023/03/05 03:59:55;;;;;;;0.10;0.10;;;4.40;99.90;;;;;;5027560;28;20046;-62
2023/03/05 04:02:21;;;;;;;0.10;0.10;;;4.50;99.90;;;;;;5027254;28;20030;-64
2023/03/05 04:04:47;;;;;;;0.10;0.10;;;4.50;99.90;;;;;;5027779;28;20072;-62
2023/03/05 04:07:12;;;;;;;0.10;0.10;;;4.40;99.90;;;;;;5021181;28;20452;-62
2023/03/05 04:09:38;;;;;;;0.10;0.10;;;4.60;99.90;;;;;;5026517;28;20096;-62
2023/03/05 04:12:04;;;;;;;0.10;0.10;;;4.60;99.90;;;;;;5027562;28;20532;-62
2023/03/05 04:14:29;;;;;;;0.10;0.10;;;4.60;99.90;;;;;;5019045;28;20056;-62
2023/03/05 04:16:55;;;;;;;0.63;0.63;;;4.60;99.90;;;;;;5025824;28;20044;-62
2023/03/05 04:19:21;;;;;;;0.10;0.10;;;4.50;99.90;;;;;;5027897;28;20071;-61
2023/03/05 04:21:46;;;;;;;0.43;0.43;;;4.60;99.90;;;;;;5027387;28;20045;-62
2023/03/05 04:24:12;;;;;;;0.10;0.10;;;4.50;99.90;;;;;;5027077;28;20092;-62
2023/03/05 04:26:37;;;;;;;0.10;0.10;;;4.50;99.90;;;;;;5027408;28;20037;-61
2023/03/05 04:29:03;;;;;;;0.10;0.10;;;4.60;99.90;;;;;;5028231;28;20104;-61
2023/03/05 04:31:28;;;;;;;0.10;0.10;;;4.50;99.90;;;;;;5026255;28;20069;-61
2023/03/05 04:33:54;;;;;;;0.10;0.10;;;4.50;99.90;;;;;;5027777;28;20424;-61
2023/03/05 04:36:23;;;;;;;0.10;0.10;;;4.40;99.90;;;;;;5027019;28;20048;-61
2023/03/05 04:38:48;;;;;;;0.00;0.00;;;4.40;99.90;;;;;;5026845;28;20029;-61
2023/03/05 04:41:14;;;;;;;0.00;0.00;;;4.40;99.90;;;;;;5028028;28;20064;-62
2023/03/05 04:43:39;;;;;;;0.40;0.40;;;4.40;99.90;;;;;;5028344;28;20068;-61
2023/03/05 04:46:05;;;;;;;0.10;0.10;;;4.30;99.90;;;;;;5026772;28;20049;-61
2023/03/05 04:48:31;;;;;;;0.10;0.10;;;4.40;99.90;;;;;;5025931;28;20491;-61
2023/03/05 04:50:56;;;;;;;0.10;0.10;;;4.30;99.90;;;;;;5027478;28;20073;-62
2023/03/05 04:53:22;;;;;;;0.10;0.10;;;4.40;99.90;;;;;;5027273;28;20528;-61
2023/03/05 04:55:53;;;;;;;0.10;0.10;;;4.40;99.90;;;;;;5030543;28;20053;-62
2023/03/05 04:58:18;;;;;;;0.10;0.10;;;4.40;99.90;;;;;;5032417;28;20048;-61
2023/03/05 05:00:44;;;;;;;0.10;0.10;;;4.40;99.90;;;;;;5030512;28;20045;-61
2023/03/05 05:03:10;;;;;;;0.10;0.10;;;4.40;99.90;;;;;;5030451;28;20218;-62
2023/03/05 05:05:36;;;;;;;0.10;0.10;;;4.40;99.90;;;;;;5031421;28;20061;-62
2023/03/05 05:08:02;;;;;;;0.10;0.10;;;4.50;99.90;;;;;;5030208;28;20045;-61
2023/03/05 05:10:27;;;;;;;0.10;0.10;;;4.50;99.90;;;;;;5031865;28;20079;-61
2023/03/05 05:12:53;;;;;;;0.10;0.10;;;4.50;99.90;;;;;;5030773;28;20091;-62
2023/03/05 05:15:19;;;;;;;0.10;0.10;;;4.50;99.90;;;;;;5031419;28;20045;-61
2023/03/05 05:17:45;;;;;;;0.10;0.10;;;4.50;99.90;;;;;;5030486;28;20116;-62
2023/03/05 05:20:13;;;;;;;0.13;0.13;;;4.50;99.90;;;;;;5023833;28;20513;-61
2023/03/05 05:22:39;;;;;;;0.20;0.20;;;4.40;99.90;;;;;;5031063;28;20037;-62
2023/03/05 05:25:05;;;;;;;0.10;0.10;;;4.40;99.90;;;;;;5029510;28;20036;-62
2023/03/05 05:27:31;;;;;;;0.10;0.10;;;4.40;99.90;;;;;;5030348;28;20045;-61
2023/03/05 05:29:56;;;;;;;0.10;0.10;;;4.40;99.90;;;;;;5031054;28;20045;-61
2023/03/05 05:32:23;;;;;;;0.10;0.10;;;4.40;99.90;;;;;;5028726;28;20033;-61
2023/03/05 05:34:56;;;;;;;0.10;0.10;;;4.40;99.90;;;;;;5030717;28;20118;-61
2023/03/05 05:37:23;;;;;;;0.20;0.20;;;4.30;99.90;;;;;;5021316;28;20025;-62
2023/03/05 05:39:49;;;;;;;0.10;0.10;;;4.30;99.90;;;;;;5025348;28;20060;-61
2023/03/05 05:42:20;;;;;;;0.10;0.10;;;4.30;99.90;;;;;;5030800;28;20052;-61
2023/03/05 05:44:46;;;;;;;0.10;0.10;;;4.40;99.90;;;;;;5030454;28;20038;-61
2023/03/05 05:47:13;;;;;;;0.25;0.25;;;4.40;99.90;;;;;;5029299;28;20054;-61
2023/03/05 05:49:38;;;;;;;0.10;0.10;;;4.40;99.90;;;;;;5029097;28;20412;-61
2023/03/05 05:52:04;;;;;;;0.10;0.10;;;4.30;99.90;;;;;;5029564;28;20041;-61
2023/03/05 05:54:30;;;;;;;0.52;0.52;;;4.40;99.90;;;;;;5011745;28;20464;-61
2023/03/05 05:56:55;;;;;;;0.10;0.10;;;4.30;99.90;;;;;;5029566;28;20443;-61
2023/03/05 05:59:21;;;;;;;0.10;0.10;;;4.30;99.90;;;;;;5028871;28;20061;-62
2023/03/05 06:01:46;;;;;;;0.10;0.10;;;4.30;99.90;;;;;;5025692;28;20113;-62
2023/03/05 06:04:12;;;;;;;0.10;0.10;;;4.30;99.90;;;;;;5028667;28;20076;-62
2023/03/05 06:06:38;;;;;;;0.10;0.10;;;4.20;99.90;;;;;;5021713;28;20120;-61
2023/03/05 06:09:03;;;;;;;0.10;0.10;;;4.10;99.90;;;;;;5029272;28;20493;-62
2023/03/05 06:11:29;;;;;;;0.10;0.10;;;4.10;99.90;;;;;;5030288;28;20038;-61
2023/03/05 06:13:55;;;;;;;0.10;0.10;;;4.10;99.90;;;;;;5012543;28;20056;-61
2023/03/05 06:16:23;;;;;;;0.10;0.10;;;4.00;99.90;;;;;;5030050;28;20056;-61
2023/03/05 06:18:49;;;;;;;0.10;0.10;;;4.00;99.90;;;;;;5027402;28;20049;-62
2023/03/05 06:21:17;;;;;;;1.13;1.13;;;4.10;99.90;;;;;;5010781;28;20096;-62
2023/03/05 06:23:44;;;;;;;0.10;0.10;;;4.00;99.90;;;;;;5029649;28;20124;-62
2023/03/05 06:26:11;;;;;;;0.10;0.10;;;3.90;99.90;;;;;;5029184;28;20041;-62
2023/03/05 06:28:37;;;;;;;0.10;0.10;;;4.00;99.90;;;;;;5029956;28;20033;-62
2023/03/05 06:31:06;;;;;;;0.10;0.10;;;4.00;99.90;;;;;;5011683;28;20558;-62
2023/03/05 06:33:32;;;;;;;0.28;0.28;;;4.10;99.90;;;;;;5028853;28;20047;-62
2023/03/05 06:35:58;;;;;;;0.10;0.10;;;3.90;99.90;;;;;;5029984;28;20037;-62
2023/03/05 06:38:24;;;;;;;0.10;0.10;;;3.90;99.90;;;;;;5028885;28;20052;-61
2023/03/05 06:40:50;;;;;;;0.10;0.10;;;4.00;99.90;;;;;;5028604;28;20049;-62
2023/03/05 06:43:16;;;;;;;0.10;0.10;;;4.00;99.90;;;;;;5029851;28;20041;-61
2023/03/05 06:45:41;;;;;;;0.00;0.00;;;4.10;99.90;;;;;;5029285;28;20110;-61
2023/03/05 06:48:07;;;;;;;0.10;0.10;;;4.10;99.90;;;;;;5028368;28;20038;-61
2023/03/05 06:50:36;;;;;;;0.10;0.10;;;4.10;99.90;;;;;;5027960;28;20049;-62
2023/03/05 06:53:02;;;;;;;0.10;0.10;;;4.20;99.90;;;;;;5028140;28;20837;-62
2023/03/05 06:55:28;;;;;;;0.10;0.10;;;4.20;99.90;;;;;;5029941;28;20128;-62
2023/03/05 06:57:53;;;;;;;0.10;0.10;;;4.30;99.90;;;;;;5029960;28;20517;-61
2023/03/05 07:00:20;;;;;;;0.20;0.17;;;4.30;99.90;;;;;;5010187;28;20461;-62
2023/03/05 07:02:45;;;;;;;0.30;0.30;;;4.30;99.90;;;;;;5029402;28;20053;-61
2023/03/05 07:05:11;;;;;;;0.55;0.43;;;4.30;99.90;;;;;;5029577;28;20046;-62
2023/03/05 07:07:37;;;;;;;0.10;0.10;;;4.30;99.90;;;;;;5027831;28;20061;-62
2023/03/05 07:10:03;;;;;;;0.10;0.10;;;4.30;99.90;;;;;;5029340;28;20081;-62
2023/03/05 07:12:29;;;;;;;0.10;0.10;;;4.30;99.90;;;;;;5027051;28;20686;-62
2023/03/05 07:14:54;;;;;;;0.10;0.10;;;4.40;99.90;;;;;;5029395;28;20052;-62
2023/03/05 07:17:20;;;;;;;0.10;0.10;;;4.40;99.90;;;;;;5028166;28;20046;-62
2023/03/05 07:19:45;;;;;;;0.10;0.10;;;4.40;99.90;;;;;;5020595;28;20049;-62
2023/03/05 07:22:11;;;;;;;0.10;0.10;;;4.40;99.90;;;;;;5011030;28;20152;-62
2023/03/05 07:24:37;;;;;;;0.10;0.10;;;4.40;99.90;;;;;;5029583;28;20045;-61
2023/03/05 07:27:03;;;;;;;0.20;0.20;;;4.50;99.90;;;;;;5026437;28;20041;-62
2023/03/05 07:29:28;;;;;;;0.10;0.10;;;4.50;99.90;;;;;;5028919;28;20049;-61
2023/03/05 07:31:54;;;;;;;0.32;0.32;;;4.60;99.90;;;;;;5027003;28;20049;-61
2023/03/05 07:34:20;;;;;;;0.10;0.10;;;4.60;99.90;;;;;;5027530;28;20393;-62
2023/03/05 07:36:49;;;;;;;0.10;0.10;;;4.60;99.90;;;;;;5028272;28;20042;-62
2023/03/05 07:39:17;;;;;;;0.10;0.10;;;4.70;99.90;;;;;;5028139;28;20049;-62
2023/03/05 07:41:44;;;;;;;0.10;0.10;;;4.80;99.90;;;;;;5028209;28;20055;-62
2023/03/05 07:44:09;;;;;;;0.10;0.10;;;4.80;99.90;;;;;;5028376;28;20237;-62
2023/03/05 07:46:35;;;;;;;0.10;0.10;;;4.90;99.90;;;;;;5009295;28;20465;-62
2023/03/05 07:49:01;;;;;;;0.10;0.10;;;5.00;99.90;;;;;;5025906;28;20073;-62
2023/03/05 07:51:27;;;;;;;0.10;0.10;;;5.00;99.90;;;;;;5026949;28;20132;-62
2023/03/05 07:53:55;;;;;;;0.10;0.10;;;5.00;99.90;;;;;;5027404;28;20045;-62
2023/03/05 07:56:27;;;;;;;0.10;0.10;;;5.10;99.90;;;;;;5027419;28;20370;-62
2023/03/05 07:58:53;;;;;;;0.10;0.10;;;5.10;99.90;;;;;;5020361;28;20045;-62
2023/03/05 08:01:19;;;;;;;0.10;0.10;;;5.20;99.90;;;;;;5028808;28;20040;-62
2023/03/05 08:03:45;;;;;;;0.90;0.73;;;5.20;99.90;;;;;;5027803;28;20679;-61
2023/03/05 08:06:11;;;;;;;0.10;0.10;;;5.30;99.90;;;;;;5027536;28;20064;-62
2023/03/05 08:08:37;;;;;;;0.10;0.10;;;5.30;99.90;;;;;;5025084;28;20045;-62
2023/03/05 08:11:08;;;;;;;0.10;0.10;;;5.40;99.90;;;;;;5028005;28;20044;-62
2023/03/05 08:13:35;;;;;;;0.10;0.10;;;5.50;99.90;;;;;;5027833;28;20037;-62
2023/03/05 08:16:10;;;;;;;0.10;0.10;;;5.50;99.90;;;;;;5008969;28;20041;-62
2023/03/05 08:18:35;;;;;;;0.10;0.10;;;5.60;99.90;;;;;;5027520;28;21796;-62
2023/03/05 08:21:01;;;;;;;0.10;0.10;;;5.60;99.90;;;;;;5015416;28;20045;-62
2023/03/05 08:23:28;;;;;;;0.10;0.10;;;5.60;99.90;;;;;;5027427;28;20148;-62
2023/03/05 08:25:54;;;;;;;0.10;0.10;;;5.70;99.90;;;;;;5025213;28;20037;-62
2023/03/05 08:28:20;;;;;;;0.10;0.10;;;5.80;99.90;;;;;;5027679;28;20124;-62
2023/03/05 08:30:46;;;;;;;0.10;0.10;;;5.80;99.90;;;;;;5026377;28;20124;-61
2023/03/05 08:33:13;;;;;;;0.10;0.10;;;5.90;99.90;;;;;;5026303;28;20099;-62
2023/03/05 08:35:39;;;;;;;0.10;0.10;;;5.90;99.90;;;;;;5027172;28;20046;-62
2023/03/05 08:38:04;;;;;;;0.10;0.10;;;6.00;99.90;;;;;;5017512;28;20217;-61
2023/03/05 08:40:30;;;;;;;0.10;0.10;;;6.00;99.90;;;;;;5022467;28;20108;-61
2023/03/05 08:42:57;;;;;;;0.10;0.10;;;6.10;99.90;;;;;;5024037;28;20680;-61
2023/03/05 08:45:22;;;;;;;0.10;0.10;;;6.20;99.90;;;;;;5025518;28;20060;-61
2023/03/05 08:47:48;;;;;;;0.10;0.10;;;6.20;99.90;;;;;;5025054;28;20409;-61
2023/03/05 08:50:14;;;;;;;0.10;0.10;;;6.20;99.90;;;;;;5020477;28;20044;-61
2023/03/05 08:52:40;;;;;;;0.10;0.10;;;6.30;99.90;;;;;;5025200;28;20583;-61
2023/03/05 08:55:05;;;;;;;0.20;0.20;;;6.40;99.90;;;;;;5024115;28;20038;-61
2023/03/05 08:57:31;;;;;;;0.10;0.10;;;6.50;99.90;;;;;;5025933;28;20033;-61
2023/03/05 08:59:57;;;;;;;0.10;0.10;;;6.50;99.90;;;;;;5025248;28;20044;-61
2023/03/05 09:02:22;;;;;;;0.10;0.10;;;6.40;99.90;;;;;;5022890;28;20050;-62
2023/03/05 09:04:48;;;;;;;0.10;0.10;;;6.30;99.90;;;;;;5026124;28;20393;-61
2023/03/05 09:07:13;;;;;;;0.10;0.10;;;6.30;99.90;;;;;;5020519;28;20048;-61
2023/03/05 09:09:39;;;;;;;0.00;0.00;;;6.30;99.90;;;;;;5021003;28;20041;-61
2023/03/05 09:12:05;;;;;;;0.10;0.10;;;6.30;99.90;;;;;;5024183;28;20460;-61
2023/03/05 09:14:30;;;;;;;0.10;0.10;;;6.30;99.90;;;;;;5023357;28;20044;-61
2023/03/05 09:16:57;;;;;;;0.10;0.10;;;6.30;99.90;;;;;;5026537;28;20049;-61
2023/03/05 09:19:23;;;;;;;0.10;0.10;;;6.40;99.90;;;;;;5002195;28;20042;-61
2023/03/05 09:21:49;;;;;;;0.10;0.10;;;6.50;99.90;;;;;;5019472;28;20037;-61
2023/03/05 09:24:14;;;;;;;0.00;0.00;;;6.60;99.90;;;;;;5025197;28;20064;-61
2023/03/05 09:26:41;;;;;;;0.10;0.10;;;6.80;99.90;;;;;;5023701;28;20076;-61
2023/03/05 09:29:07;;;;;;;0.10;0.10;;;6.90;99.90;;;;;;5022730;28;20042;-61
2023/03/05 09:31:37;;;;;;;0.75;0.75;;;6.80;99.90;;;;;;5024006;28;20053;-61
2023/03/05 09:34:03;;;;;;;0.10;0.10;;;6.90;99.90;;;;;;5024631;28;20554;-61
2023/03/05 09:36:30;;;;;;;0.10;0.10;;;6.90;99.90;;;;;;5024233;28;20038;-61
2023/03/05 09:38:56;;;;;;;0.10;0.10;;;7.10;99.90;;;;;;5025664;28;20091;-61
2023/03/05 09:41:25;;;;;;;0.10;0.10;;;7.20;99.90;;;;;;5004327;28;20072;-61
2023/03/05 09:44:16;;;;;;;0.10;0.10;;;7.20;99.90;;;;;;5027507;28;20042;-61
2023/03/05 09:46:53;;;;;;;0.10;0.10;;;6.90;99.90;;;;;;5028995;28;20502;-61
2023/03/05 09:49:48;;;;;;;0.10;0.10;;;6.80;99.90;;;;;;5026089;28;20046;-61
2023/03/05 09:52:27;;;;;;;0.10;0.10;;;7.50;99.90;;;;;;5029398;28;20136;-62
2023/03/05 09:54:56;;;;;;;0.00;0.00;;;8.30;99.90;;;;;;5029393;28;20113;-59
2023/03/05 09:57:34;;;;;;;0.10;0.10;;;9.00;99.90;;;;;;5022553;28;20124;-60
2023/03/05 10:00:07;;;;;;;0.08;0.08;;;9.50;99.90;;;;;;5028620;28;20045;-60
2023/03/05 10:02:38;;;;;;;0.10;0.10;;;9.70;99.90;;;;;;5029530;28;20045;-60
2023/03/05 10:05:16;;;;;;;0.10;0.10;;;10.10;99.90;;;;;;5027449;28;20073;-60
2023/03/05 10:07:52;;;;;;;0.10;0.10;;;10.40;99.90;;;;;;5028019;28;20045;-60
2023/03/05 10:10:26;;;;;;;0.00;0.00;;;10.30;99.90;;;;;;5029175;28;20107;-60
2023/03/05 10:13:03;;;;;;;0.10;0.10;;;10.50;99.90;;;;;;5029480;28;20092;-60
2023/03/05 10:15:38;;;;;;;0.10;0.10;;;10.20;99.90;;;;;;5007165;28;20550;-60
2023/03/05 10:18:18;;;;;;;0.10;0.10;;;10.20;99.90;;;;;;5027348;28;20103;-60
2023/03/05 10:21:01;;;;;;;0.35;0.35;;;10.00;99.90;;;;;;5017729;28;20045;-60
2023/03/05 10:23:29;;;;;;;0.00;0.00;;;9.40;99.90;;;;;;5029576;28;20484;-60
2023/03/05 10:26:04;;;;;;;0.00;0.00;;;9.60;99.90;;;;;;5030007;28;20041;-60
2023/03/05 10:28:34;;;;;;;0.00;0.00;;;9.50;99.90;;;;;;5029245;28;20042;-60
2023/03/05 10:31:23;;;;;;;0.10;0.10;;;9.70;99.90;;;;;;5011561;28;20049;-61
2023/03/05 10:34:12;;;;;;;0.10;0.10;;;9.50;99.90;;;;;;5024928;28;20049;-61
2023/03/05 10:36:46;;;;;;;0.10;0.10;;;9.50;99.90;;;;;;5024200;28;20149;-60
2023/03/05 10:39:11;;;;;;;;;;;9.20;99.90;;;;;;5028138;28;20085;-60
2023/03/05 10:41:47;;;;;;;0.10;0.10;;;9.00;99.90;;;;;;5028924;28;19972;-60
2023/03/05 10:44:20;;;;;;;0.20;0.20;;;9.20;99.90;;;;;;5027873;28;20490;-61
2023/03/05 10:46:46;;;;;;;;;;;9.40;99.90;;;;;;5028010;28;20046;-60
2023/03/05 10:49:18;;;;;;;0.00;0.00;;;9.30;99.90;;;;;;5025850;28;19921;-61
2023/03/05 10:51:47;;;;;;;0.00;0.00;;;9.30;99.90;;;;;;5027840;28;20086;-61
2023/03/05 10:54:30;;;;;;;0.05;0.05;;;9.10;99.90;;;;;;5028555;28;20047;-60
2023/03/05 10:57:14;;;;;;;0.22;0.22;;;8.90;99.90;;;;;;5024172;28;20073;-60
2023/03/05 10:59:46;;;;;;;0.20;0.20;;;8.70;99.90;;;;;;5026478;28;20423;-60
2023/03/05 11:02:12;;;;;;;0.10;0.10;;;8.50;99.90;;;;;;5028736;28;20095;-60
2023/03/05 11:04:39;;;;;;;0.10;0.10;;;8.80;99.90;;;;;;5027241;28;20037;-60
2023/03/05 11:07:33;;;;;;;0.20;0.20;;;9.10;99.90;;;;;;5029178;28;20512;-60
2023/03/05 11:10:24;;;;;;;0.10;0.10;;;9.20;99.90;;;;;;5023692;28;20104;-60
2023/03/05 11:12:50;;;;;;;0.10;0.10;;;9.30;99.90;;;;;;5024582;28;20046;-60
2023/03/05 11:15:15;;;;;;;0.10;0.10;;;9.20;99.90;;;;;;5025887;28;20038;-60
2023/03/05 11:17:43;;;;;;;0.10;0.10;;;9.30;99.90;;;;;;5028266;28;20841;-60
2023/03/05 11:20:27;;;;;;;0.05;0.05;;;9.40;99.90;;;;;;5027297;28;20045;-60
2023/03/05 11:23:12;;;;;;;0.00;0.00;;;9.20;99.90;;;;;;5027764;28;20049;-61
2023/03/05 11:26:04;;;;;;;0.10;0.10;;;9.10;99.90;;;;;;5019517;28;20747;-60
2023/03/05 11:28:53;;;;;;;0.10;0.10;;;8.90;99.90;;;;;;5029147;28;20071;-60
2023/03/05 11:31:24;;;;;;;0.10;0.10;;;9.00;99.90;;;;;;5028741;28;21098;-60
2023/03/05 11:34:15;;;;;;;0.63;0.63;;;9.10;99.90;;;;;;5020654;28;20377;-60
2023/03/05 11:36:57;;;;;;;0.10;0.10;;;9.30;99.90;;;;;;5023191;28;20045;-61
2023/03/05 11:39:29;;;;;;;0.10;0.10;;;9.20;99.90;;;;;;5027216;28;20041;-61
2023/03/05 11:41:59;;;;;;;0.10;0.10;;;8.80;99.90;;;;;;5027077;28;20072;-60
2023/03/05 11:44:45;;;;;;;0.10;0.10;;;8.70;99.90;;;;;;5002501;28;20052;-60
2023/03/05 11:47:38;;;;;;;0.10;0.10;;;8.50;99.90;;;;;;5026791;28;20056;-60
2023/03/05 11:50:15;;;;;;;0.10;0.10;;;8.50;99.90;;;;;;5009778;28;20065;-61
2023/03/05 11:52:56;;;;;;;0.10;0.10;;;8.60;99.90;;;;;;5028583;28;20053;-61
2023/03/05 11:55:33;;;;;;;0.20;0.20;;;8.90;99.90;;;;;;5024164;28;20042;-60
2023/03/05 11:58:24;;;;;;;0.13;0.13;;;9.40;99.90;;;;;;5024624;28;20789;-60
2023/03/05 12:00:49;;;;;;;0.00;0.00;;;9.60;99.90;;;;;;5016867;28;20049;-60
2023/03/05 12:03:19;;;;;;;0.10;0.10;;;9.80;99.90;;;;;;5028647;28;20718;-61
2023/03/05 12:05:49;;;;;;;8.07;1.55;;;9.90;99.90;;;;;;5026650;28;20045;-61
2023/03/05 12:08:21;;;;;;;0.10;0.10;;;10.30;99.90;;;;;;5020392;28;20623;-61
2023/03/05 12:10:47;;;;;;;0.10;0.10;;;10.40;99.90;;;;;;5027776;28;20049;-61
2023/03/05 12:13:32;;;;;;;0.10;0.10;;;10.50;99.90;;;;;;5023948;28;20057;-61
2023/03/05 12:16:24;;;;;;;0.10;0.10;;;10.40;99.90;;;;;;5025789;28;20485;-60
2023/03/05 12:19:12;;;;;;;0.10;0.10;;;10.30;99.90;;;;;;5020974;28;20065;-61
2023/03/05 12:21:42;;;;;;;0.10;0.10;;;10.30;99.90;;;;;;5027114;28;20144;-60
2023/03/05 12:24:23;;;;;;;0.00;0.00;;;10.80;99.90;;;;;;5009896;28;20045;-61
2023/03/05 12:27:03;;;;;;;0.10;0.10;;;11.00;99.90;;;;;;5028431;28;20370;-60
2023/03/05 12:29:32;;;;;;;0.00;0.00;;;11.00;99.90;;;;;;5026516;28;20081;-61
2023/03/05 12:32:01;;;;;;;0.30;0.30;;;11.30;99.90;;;;;;5028002;28;20413;-61
2023/03/05 12:34:39;;;;;;;0.10;0.10;;;11.50;99.90;;;;;;5026085;28;20120;-61
2023/03/05 12:37:18;;;;;;;0.10;0.10;;;11.60;99.90;;;;;;5024064;28;20299;-60
2023/03/05 12:39:46;;;;;;;0.10;0.10;;;11.50;99.90;;;;;;5026187;28;20053;-61
2023/03/05 12:42:32;;;;;;;0.10;0.10;;;11.00;99.90;;;;;;5025239;28;20140;-61
2023/03/05 12:45:15;;;;;;;0.00;0.00;;;10.70;99.90;;;;;;4966215;28;20061;-61
2023/03/05 12:47:42;;;;;;;0.10;0.10;;;10.50;99.90;;;;;;5017865;28;20058;-61
2023/03/05 12:50:28;;;;;;;0.00;0.00;;;10.40;99.90;;;;;;5026790;28;20048;-61
2023/03/05 12:52:57;;;;;;;2.88;0.60;;;10.50;99.90;;;;;;5026744;28;20056;-61
2023/03/05 12:55:27;;;;;;;0.10;0.10;;;10.30;99.90;;;;;;5028037;28;20492;-61
2023/03/05 12:57:58;;;;;;;0.10;0.10;;;10.10;99.90;;;;;;5025958;28;20046;-61
2023/03/05 13:00:39;;;;;;;0.30;0.30;;;10.00;99.90;;;;;;5008770;28;20057;-60
2023/03/05 13:03:12;;;;;;;0.10;0.10;;;9.90;99.90;;;;;;5027782;28;20115;-61
2023/03/05 13:05:46;;;;;;;;;;;10.30;99.90;;;;;;5026538;28;20497;-61
2023/03/05 13:08:30;;;;;;;4.28;1.90;;;10.30;99.90;;;;;;5027622;28;19921;-61